createdAt,value
2023-03-25T00:01:25.711Z,100.00
2023-03-25T00:03:54.514Z,100.00
2023-03-25T00:06:23.265Z,100.00
2023-03-25T00:08:51.985Z,100.00
2023-03-25T00:11:20.733Z,100.00
2023-03-25T00:13:49.455Z,100.00
2023-03-25T00:16:20.196Z,100.00
2023-03-25T00:18:49.995Z,100.00
2023-03-25T00:21:18.985Z,100.00
2023-03-25T00:23:48.000Z,100.00
2023-03-25T00:26:16.761Z,100.00
2023-03-25T00:28:45.805Z,100.00
2023-03-25T00:31:15.874Z,100.00
2023-03-25T00:33:46.032Z,100.00
2023-03-25T00:36:15.500Z,100.00
2023-03-25T00:38:45.661Z,100.00
2023-03-25T00:41:22.857Z,100.00
2023-03-25T00:43:54.973Z,100.00
2023-03-25T00:46:24.621Z,100.00
2023-03-25T00:48:55.308Z,100.00
2023-03-25T00:51:25.903Z,100.00
2023-03-25T00:54:00.206Z,100.00
2023-03-25T00:56:30.111Z,100.00
2023-03-25T00:58:59.463Z,100.00
2023-03-25T01:01:30.236Z,100.00
2023-03-25T01:04:01.645Z,100.00
2023-03-25T01:06:34.842Z,100.00
2023-03-25T01:09:05.782Z,100.00
2023-03-25T01:11:37.688Z,100.00
2023-03-25T01:14:08.769Z,100.00
2023-03-25T01:16:37.480Z,100.00
2023-03-25T01:19:07.598Z,100.00
2023-03-25T01:21:36.882Z,100.00
2023-03-25T01:24:06.048Z,100.00
2023-03-25T01:26:34.964Z,100.00
2023-03-25T01:29:03.657Z,100.00
2023-03-25T01:31:32.984Z,100.00
2023-03-25T01:34:01.914Z,100.00
2023-03-25T01:36:32.366Z,100.00
2023-03-25T01:39:02.549Z,100.00
2023-03-25T01:41:42.609Z,100.00
2023-03-25T01:44:50.936Z,100.00
2023-03-25T01:47:19.779Z,100.00
2023-03-25T01:49:50.192Z,100.00
2023-03-25T01:52:25.426Z,100.00
2023-03-25T01:54:56.911Z,100.00
2023-03-25T01:57:26.243Z,100.00
2023-03-25T01:59:56.655Z,100.00
2023-03-25T02:02:36.743Z,100.00
2023-03-25T02:05:11.165Z,100.00
2023-03-25T02:07:46.920Z,100.00
2023-03-25T02:10:16.716Z,100.00
2023-03-25T02:12:47.148Z,100.00
2023-03-25T02:15:19.055Z,100.00
2023-03-25T02:18:13.716Z,100.00
2023-03-25T02:21:12.767Z,100.00
2023-03-25T02:24:30.005Z,100.00
2023-03-25T02:27:28.262Z,100.00
2023-03-25T02:30:20.878Z,100.00
2023-03-25T02:33:33.500Z,100.00
2023-03-25T02:36:38.850Z,100.00
2023-03-25T02:39:15.743Z,100.00
2023-03-25T02:41:52.262Z,100.00
2023-03-25T02:44:30.765Z,100.00
2023-03-25T02:47:05.552Z,100.00
2023-03-25T02:49:38.088Z,100.00
2023-03-25T02:52:11.887Z,100.00
2023-03-25T02:54:45.108Z,100.00
2023-03-25T02:57:18.900Z,100.00
2023-03-25T02:59:48.904Z,100.00
2023-03-25T03:02:19.447Z,100.00
2023-03-25T03:04:50.488Z,100.00
2023-03-25T03:07:26.152Z,100.00
2023-03-25T03:10:06.045Z,100.00
2023-03-25T03:12:51.113Z,100.00
2023-03-25T03:15:31.329Z,100.00
2023-03-25T03:18:10.635Z,100.00
2023-03-25T03:20:44.615Z,100.00
2023-03-25T03:23:21.052Z,100.00
2023-03-25T03:25:56.308Z,100.00
2023-03-25T03:28:31.713Z,100.00
2023-03-25T03:31:06.939Z,100.00
2023-03-25T03:33:44.191Z,100.00
2023-03-25T03:36:17.313Z,100.00
2023-03-25T03:38:51.203Z,100.00
2023-03-25T03:41:27.139Z,100.00
2023-03-25T03:44:02.747Z,100.00
2023-03-25T03:46:35.976Z,100.00
2023-03-25T03:49:10.612Z,100.00
2023-03-25T03:51:44.076Z,100.00
2023-03-25T03:54:19.592Z,100.00
2023-03-25T03:56:55.384Z,100.00
2023-03-25T03:59:34.673Z,100.00
2023-03-25T04:02:07.834Z,100.00
2023-03-25T04:04:38.864Z,100.00
2023-03-25T04:07:14.961Z,100.00
2023-03-25T04:09:55.115Z,100.00
2023-03-25T04:12:28.196Z,100.00
2023-03-25T04:14:57.880Z,100.00
2023-03-25T04:17:30.147Z,100.00
2023-03-25T04:19:58.802Z,100.00
2023-03-25T04:22:27.773Z,100.00
2023-03-25T04:25:00.248Z,100.00
2023-03-25T04:27:32.820Z,100.00
2023-03-25T04:30:03.041Z,100.00
2023-03-25T04:32:31.777Z,100.00
2023-03-25T04:35:00.527Z,100.00
2023-03-25T04:37:29.897Z,100.00
2023-03-25T04:40:00.243Z,100.00
2023-03-25T04:42:32.999Z,100.00
2023-03-25T04:45:02.579Z,100.00
2023-03-25T04:47:31.373Z,100.00
2023-03-25T04:50:00.188Z,100.00
2023-03-25T04:52:28.914Z,100.00
2023-03-25T04:54:57.624Z,100.00
2023-03-25T04:57:26.355Z,100.00
2023-03-25T04:59:56.544Z,100.00
2023-03-25T05:02:25.318Z,100.00
2023-03-25T05:04:54.270Z,100.00
2023-03-25T05:07:22.937Z,100.00
2023-03-25T05:09:51.761Z,100.00
2023-03-25T05:12:20.619Z,100.00
2023-03-25T05:14:49.580Z,100.00
2023-03-25T05:17:19.733Z,100.00
2023-03-25T05:19:48.481Z,100.00
2023-03-25T05:22:17.176Z,100.00
2023-03-25T05:24:45.873Z,100.00
2023-03-25T05:27:14.619Z,100.00
2023-03-25T05:29:44.604Z,100.00
2023-03-25T05:32:13.699Z,100.00
2023-03-25T05:34:46.508Z,100.00
2023-03-25T05:37:15.765Z,100.00
2023-03-25T05:39:45.689Z,100.00
2023-03-25T05:42:14.815Z,100.00
2023-03-25T05:44:51.645Z,100.00
2023-03-25T05:47:25.762Z,100.00
2023-03-25T05:49:55.856Z,100.00
2023-03-25T05:52:25.664Z,100.00
2023-03-25T05:54:55.816Z,100.00
2023-03-25T05:57:24.571Z,100.00
2023-03-25T05:59:53.223Z,100.00
2023-03-25T06:02:22.248Z,100.00
2023-03-25T06:04:51.480Z,100.00
2023-03-25T06:07:24.252Z,100.00
2023-03-25T06:09:54.331Z,100.00
2023-03-25T06:12:27.638Z,100.00
2023-03-25T06:14:56.418Z,100.00
2023-03-25T06:17:25.253Z,100.00
2023-03-25T06:19:54.166Z,100.00
2023-03-25T06:22:24.337Z,100.00
2023-03-25T06:24:53.432Z,100.00
2023-03-25T06:27:24.822Z,100.00
2023-03-25T06:29:53.549Z,100.00
2023-03-25T06:32:22.379Z,100.00
2023-03-25T06:34:51.451Z,100.00
2023-03-25T06:37:21.924Z,100.00
2023-03-25T06:39:56.397Z,100.00
2023-03-25T06:42:28.431Z,100.00
2023-03-25T06:45:22.586Z,100.00
2023-03-25T06:48:03.157Z,100.00
2023-03-25T06:50:31.934Z,100.00
2023-03-25T06:53:00.988Z,100.00
2023-03-25T06:55:31.145Z,100.00
2023-03-25T06:57:59.606Z,100.00
2023-03-25T07:00:28.569Z,100.00
2023-03-25T07:02:58.397Z,100.00
2023-03-25T07:05:27.297Z,100.00
2023-03-25T07:07:56.128Z,100.00
2023-03-25T07:10:24.817Z,100.00
2023-03-25T07:12:54.898Z,100.00
2023-03-25T07:15:23.621Z,100.00
2023-03-25T07:17:53.176Z,100.00
2023-03-25T07:20:21.684Z,100.00
2023-03-25T07:22:50.393Z,100.00
2023-03-25T07:25:19.142Z,100.00
2023-03-25T07:27:47.833Z,100.00
2023-03-25T07:30:21.159Z,100.00
2023-03-25T07:32:50.054Z,100.00
2023-03-25T07:35:18.900Z,95.78
2023-03-25T07:37:47.812Z,95.18
2023-03-25T07:40:16.617Z,94.09
2023-03-25T07:42:46.463Z,90.55
2023-03-25T07:45:24.497Z,88.16
2023-03-25T07:47:55.487Z,90.35
2023-03-25T07:50:25.624Z,88.35
2023-03-25T07:52:56.111Z,86.86
2023-03-25T07:55:24.506Z,83.34
2023-03-25T07:57:53.223Z,83.29
2023-03-25T08:00:23.943Z,82.40
2023-03-25T08:02:52.840Z,84.10
2023-03-25T08:05:22.335Z,83.73
2023-03-25T08:07:51.381Z,82.13
2023-03-25T08:10:20.722Z,78.98
2023-03-25T08:12:52.718Z,77.65
2023-03-25T08:15:24.646Z,76.97
2023-03-25T08:17:54.795Z,76.90
2023-03-25T08:20:23.455Z,75.94
2023-03-25T08:22:52.399Z,77.71
2023-03-25T08:25:21.119Z,79.33
2023-03-25T08:27:49.889Z,76.10
2023-03-25T08:30:18.640Z,78.81
2023-03-25T08:32:54.624Z,78.97
2023-03-25T08:35:26.309Z,75.39
2023-03-25T08:37:55.028Z,72.73
2023-03-25T08:40:23.785Z,73.79
2023-03-25T08:42:52.243Z,73.03
2023-03-25T08:45:21.149Z,72.09
2023-03-25T08:47:49.954Z,71.54
2023-03-25T08:50:18.616Z,70.79
2023-03-25T08:52:48.551Z,69.16
2023-03-25T08:55:17.785Z,67.64
2023-03-25T08:57:46.681Z,67.83
2023-03-25T09:00:16.914Z,65.30
2023-03-25T09:02:46.042Z,65.31
2023-03-25T09:05:16.112Z,65.19
2023-03-25T09:07:45.044Z,69.02
2023-03-25T09:10:15.044Z,67.15
2023-03-25T09:12:45.721Z,65.43
2023-03-25T09:15:14.198Z,63.71
2023-03-25T09:17:43.087Z,63.10
2023-03-25T09:20:12.664Z,64.16
2023-03-25T09:22:42.134Z,66.55
2023-03-25T09:25:12.363Z,69.53
2023-03-25T09:27:42.163Z,71.65
2023-03-25T09:30:12.526Z,73.20
2023-03-25T09:32:41.217Z,74.09
2023-03-25T09:35:10.166Z,74.14
2023-03-25T09:37:38.786Z,75.50
2023-03-25T09:40:09.382Z,76.62
2023-03-25T09:43:08.897Z,73.87
2023-03-25T09:45:42.256Z,73.97
2023-03-25T09:48:28.155Z,73.73
2023-03-25T09:51:01.604Z,72.79
2023-03-25T09:53:39.871Z,72.57
2023-03-25T09:56:19.866Z,74.68
2023-03-25T09:58:53.419Z,76.17
2023-03-25T10:01:39.191Z,79.63
2023-03-25T10:05:03.670Z,83.01
2023-03-25T10:07:53.117Z,84.49
2023-03-25T10:10:30.401Z,84.63
2023-03-25T10:13:14.719Z,87.86
2023-03-25T10:15:55.476Z,88.25
2023-03-25T10:18:54.148Z,87.87
2023-03-25T10:21:31.686Z,88.61
2023-03-25T10:24:13.958Z,86.04
2023-03-25T10:26:48.954Z,84.48
2023-03-25T10:29:23.324Z,82.78
2023-03-25T10:31:57.903Z,80.84
2023-03-25T10:34:38.713Z,76.04
2023-03-25T10:37:14.254Z,76.52
2023-03-25T10:39:45.744Z,72.62
2023-03-25T10:42:26.292Z,70.07
2023-03-25T10:44:55.820Z,67.51
2023-03-25T10:47:33.281Z,65.90
2023-03-25T10:50:02.206Z,66.88
2023-03-25T10:52:31.250Z,67.45
2023-03-25T10:55:00.557Z,66.83
2023-03-25T10:57:32.244Z,64.57
2023-03-25T11:00:12.910Z,66.29
2023-03-25T11:02:42.900Z,68.78
2023-03-25T11:05:12.962Z,71.28
2023-03-25T11:07:45.893Z,71.76
2023-03-25T11:10:22.252Z,73.68
2023-03-25T11:12:53.485Z,75.81
2023-03-25T11:15:25.713Z,77.90
2023-03-25T11:18:08.262Z,79.13
2023-03-25T11:20:40.542Z,79.22
2023-03-25T11:23:18.956Z,77.41
2023-03-25T11:25:48.271Z,77.62
2023-03-25T11:28:22.992Z,80.03
2023-03-25T11:31:13.754Z,81.73
2023-03-25T11:33:46.795Z,80.41
2023-03-25T11:36:28.735Z,79.34
2023-03-25T11:39:04.464Z,77.80
2023-03-25T11:41:37.734Z,77.05
2023-03-25T11:44:08.224Z,75.26
2023-03-25T11:46:44.669Z,74.29
2023-03-25T11:49:21.910Z,71.21
2023-03-25T11:51:52.886Z,71.56
2023-03-25T11:54:21.780Z,71.51
2023-03-25T11:56:51.459Z,73.16
2023-03-25T11:59:25.909Z,70.77
2023-03-25T12:02:04.398Z,68.23
2023-03-25T12:04:34.438Z,68.12
2023-03-25T12:07:10.872Z,72.84
2023-03-25T12:09:54.109Z,81.92
2023-03-25T12:12:39.690Z,87.86
2023-03-25T12:15:24.827Z,91.57
2023-03-25T12:18:09.264Z,97.66
2023-03-25T12:20:57.356Z,99.35
2023-03-25T12:23:44.016Z,100.00
2023-03-25T12:26:18.219Z,100.00
2023-03-25T12:29:11.877Z,99.36
2023-03-25T12:31:58.174Z,99.11
2023-03-25T12:34:43.213Z,99.01
2023-03-25T12:37:30.568Z,96.70
2023-03-25T12:40:33.644Z,87.70
2023-03-25T12:43:11.512Z,84.35
2023-03-25T12:46:03.960Z,85.11
2023-03-25T12:48:58.791Z,89.51
2023-03-25T12:51:46.175Z,96.86
2023-03-25T12:54:40.523Z,96.22
2023-03-25T12:57:29.015Z,97.04
2023-03-25T13:00:30.193Z,99.14
2023-03-25T13:03:28.348Z,97.37
2023-03-25T13:06:05.321Z,98.36
2023-03-25T13:08:39.952Z,95.16
2023-03-25T13:11:19.607Z,94.61
2023-03-25T13:13:52.484Z,92.60
2023-03-25T13:16:25.971Z,92.94
2023-03-25T13:19:04.748Z,91.35
2023-03-25T13:21:40.377Z,90.98
2023-03-25T13:24:17.036Z,85.16
2023-03-25T13:26:51.250Z,84.45
2023-03-25T13:29:31.770Z,80.78
2023-03-25T13:32:07.842Z,81.60
2023-03-25T13:34:43.932Z,80.42
2023-03-25T13:37:22.048Z,78.53
2023-03-25T13:40:12.673Z,78.73
2023-03-25T13:42:50.083Z,76.31
2023-03-25T13:45:21.537Z,75.66
2023-03-25T13:48:02.075Z,74.39
2023-03-25T13:50:33.140Z,71.42
2023-03-25T13:53:11.292Z,69.82
2023-03-25T13:55:45.678Z,67.24
2023-03-25T13:59:00.066Z,61.98
2023-03-25T14:01:49.463Z,62.10
2023-03-25T14:05:01.790Z,58.84
2023-03-25T14:07:57.709Z,57.55
2023-03-25T14:10:50.172Z,54.87
2023-03-25T14:13:27.568Z,51.98
2023-03-25T14:16:06.697Z,51.61
2023-03-25T14:18:44.296Z,52.86
2023-03-25T14:21:32.862Z,52.11
2023-03-25T14:24:12.625Z,53.55
2023-03-25T14:26:49.439Z,53.57
2023-03-25T14:29:36.205Z,53.08
2023-03-25T14:32:32.356Z,52.02
2023-03-25T14:35:48.258Z,51.27
2023-03-25T14:38:50.782Z,49.87
2023-03-25T14:41:58.277Z,49.62
2023-03-25T14:44:33.006Z,50.44
2023-03-25T14:47:27.385Z,50.41
2023-03-25T14:50:05.088Z,51.21
2023-03-25T14:52:39.997Z,52.65
2023-03-25T14:55:18.714Z,53.94
2023-03-25T14:57:50.767Z,55.58
2023-03-25T15:00:29.426Z,56.83
2023-03-25T15:03:06.944Z,59.45
2023-03-25T15:05:37.665Z,60.33
2023-03-25T15:08:17.689Z,60.79
2023-03-25T15:10:53.070Z,61.82
2023-03-25T15:13:28.420Z,62.21
2023-03-25T15:16:03.021Z,62.65
2023-03-25T15:19:10.498Z,64.47
2023-03-25T15:22:19.034Z,65.91
2023-03-25T15:24:59.801Z,69.30
2023-03-25T15:28:00.165Z,76.42
2023-03-25T15:31:04.410Z,86.63
2023-03-25T15:33:56.677Z,90.09
2023-03-25T15:37:05.620Z,93.82
2023-03-25T15:39:55.900Z,99.64
2023-03-25T15:43:00.422Z,100.00
2023-03-25T15:46:24.292Z,100.00
2023-03-25T15:49:19.050Z,100.00
2023-03-25T15:52:11.038Z,100.00
2023-03-25T15:54:45.586Z,100.00
2023-03-25T15:57:26.347Z,100.00
2023-03-25T16:00:11.914Z,100.00
2023-03-25T16:02:48.476Z,100.00
2023-03-25T16:05:19.705Z,100.00
2023-03-25T16:07:50.942Z,100.00
2023-03-25T16:10:28.259Z,100.00
2023-03-25T16:12:57.287Z,100.00
2023-03-25T16:15:30.786Z,100.00
2023-03-25T16:18:03.555Z,100.00
2023-03-25T16:20:36.653Z,100.00
2023-03-25T16:23:14.827Z,100.00
2023-03-25T16:25:45.591Z,100.00
2023-03-25T16:28:19.705Z,100.00
2023-03-25T16:30:53.382Z,100.00
2023-03-25T16:33:28.951Z,100.00
2023-03-25T16:36:01.388Z,100.00
2023-03-25T16:38:33.576Z,100.00
2023-03-25T16:41:05.057Z,100.00
2023-03-25T16:43:34.691Z,100.00
2023-03-25T16:46:06.247Z,100.00
2023-03-25T16:48:38.016Z,100.00
2023-03-25T16:51:13.873Z,100.00
2023-03-25T16:53:46.018Z,100.00
2023-03-25T16:56:30.234Z,100.00
2023-03-25T16:59:04.000Z,100.00
2023-03-25T17:01:38.456Z,100.00
2023-03-25T17:04:18.777Z,100.00
2023-03-25T17:06:53.269Z,100.00
2023-03-25T17:09:28.374Z,100.00
2023-03-25T17:11:59.110Z,100.00
2023-03-25T17:14:33.699Z,100.00
2023-03-25T17:17:30.012Z,100.00
2023-03-25T17:20:08.309Z,100.00
2023-03-25T17:22:39.774Z,100.00
2023-03-25T17:25:27.422Z,100.00
2023-03-25T17:27:59.582Z,100.00
2023-03-25T17:30:42.828Z,100.00
2023-03-25T17:33:19.488Z,100.00
2023-03-25T17:35:55.908Z,100.00
2023-03-25T17:38:30.306Z,100.00
2023-03-25T17:41:03.831Z,100.00
2023-03-25T17:43:36.233Z,100.00
2023-03-25T17:46:07.442Z,100.00
2023-03-25T17:48:36.875Z,100.00
2023-03-25T17:51:06.537Z,100.00
2023-03-25T17:53:35.395Z,100.00
2023-03-25T17:56:06.804Z,100.00
2023-03-25T17:58:35.607Z,100.00
2023-03-25T18:01:04.342Z,100.00
2023-03-25T18:03:36.206Z,100.00
2023-03-25T18:06:05.560Z,100.00
2023-03-25T18:08:34.934Z,100.00
2023-03-25T18:11:05.379Z,100.00
2023-03-25T18:13:34.191Z,100.00
2023-03-25T18:16:03.158Z,100.00
2023-03-25T18:18:32.011Z,100.00
2023-03-25T18:21:03.966Z,100.00
2023-03-25T18:23:32.808Z,100.00
2023-03-25T18:26:01.770Z,100.00
2023-03-25T18:28:34.471Z,100.00
2023-03-25T18:31:03.520Z,100.00
2023-03-25T18:33:34.691Z,100.00
2023-03-25T18:36:03.210Z,100.00
2023-03-25T18:38:31.980Z,100.00
2023-03-25T18:41:00.800Z,100.00
2023-03-25T18:43:30.853Z,100.00
2023-03-25T18:46:04.818Z,100.00
2023-03-25T18:48:33.594Z,100.00
2023-03-25T18:51:02.583Z,100.00
2023-03-25T18:53:31.545Z,100.00
2023-03-25T18:56:04.252Z,100.00
2023-03-25T18:58:36.282Z,100.00
2023-03-25T19:01:07.491Z,100.00
2023-03-25T19:03:39.800Z,100.00
2023-03-25T19:06:11.575Z,100.00
2023-03-25T19:08:41.171Z,100.00
2023-03-25T19:11:20.077Z,100.00
2023-03-25T19:13:52.870Z,100.00
2023-03-25T19:16:22.620Z,100.00
2023-03-25T19:18:51.391Z,100.00
2023-03-25T19:21:21.273Z,100.00
2023-03-25T19:23:52.080Z,100.00
2023-03-25T19:26:27.241Z,100.00
2023-03-25T19:28:58.456Z,100.00
2023-03-25T19:31:33.425Z,100.00
2023-03-25T19:34:02.523Z,100.00
2023-03-25T19:36:34.941Z,100.00
2023-03-25T19:39:05.801Z,100.00
2023-03-25T19:41:35.077Z,100.00
2023-03-25T19:44:05.433Z,100.00
2023-03-25T19:46:46.362Z,100.00
2023-03-25T19:49:20.653Z,100.00
2023-03-25T19:51:57.901Z,100.00
2023-03-25T19:54:27.219Z,100.00
2023-03-25T19:56:56.428Z,100.00
2023-03-25T19:59:26.472Z,99.61
2023-03-25T20:01:55.352Z,100.00
2023-03-25T20:04:24.130Z,99.16
2023-03-25T20:06:53.100Z,97.26
2023-03-25T20:09:21.880Z,100.00
2023-03-25T20:11:50.470Z,100.00
2023-03-25T20:14:19.711Z,100.00
2023-03-25T20:16:49.690Z,100.00
2023-03-25T20:19:18.594Z,100.00
2023-03-25T20:21:48.126Z,100.00
2023-03-25T20:24:17.014Z,100.00
2023-03-25T20:26:46.220Z,100.00
2023-03-25T20:29:16.982Z,100.00
2023-03-25T20:31:46.101Z,100.00
2023-03-25T20:34:16.317Z,100.00
2023-03-25T20:36:46.600Z,100.00
2023-03-25T20:39:18.570Z,100.00
2023-03-25T20:41:47.376Z,100.00
2023-03-25T20:44:17.476Z,100.00
2023-03-25T20:46:46.719Z,100.00
2023-03-25T20:49:19.142Z,100.00
2023-03-25T20:51:48.573Z,100.00
2023-03-25T20:54:17.758Z,100.00
2023-03-25T20:56:47.000Z,100.00
2023-03-25T20:59:16.996Z,100.00
2023-03-25T21:01:50.809Z,100.00
2023-03-25T21:04:26.566Z,100.00
2023-03-25T21:06:55.822Z,100.00
2023-03-25T21:09:25.716Z,100.00
2023-03-25T21:11:54.463Z,100.00
2023-03-25T21:14:23.532Z,100.00
2023-03-25T21:16:54.337Z,100.00
2023-03-25T21:19:23.132Z,100.00
2023-03-25T21:21:54.317Z,100.00
2023-03-25T21:24:25.117Z,100.00
2023-03-25T21:26:53.829Z,100.00
2023-03-25T21:29:22.746Z,100.00
2023-03-25T21:31:51.652Z,100.00
2023-03-25T21:34:22.027Z,100.00
2023-03-25T21:36:52.159Z,100.00
2023-03-25T21:39:20.879Z,100.00
2023-03-25T21:41:49.641Z,100.00
2023-03-25T21:44:18.348Z,100.00
2023-03-25T21:46:47.076Z,100.00
2023-03-25T21:49:16.176Z,100.00
2023-03-25T21:51:56.661Z,100.00
2023-03-25T21:54:26.526Z,100.00
2023-03-25T21:56:55.963Z,100.00
2023-03-25T21:59:27.277Z,100.00
2023-03-25T22:01:56.546Z,100.00
2023-03-25T22:04:25.302Z,100.00
2023-03-25T22:06:56.750Z,100.00
2023-03-25T22:09:26.568Z,100.00
2023-03-25T22:11:55.827Z,100.00
2023-03-25T22:14:24.700Z,100.00
2023-03-25T22:16:53.522Z,100.00
2023-03-25T22:19:24.543Z,100.00
2023-03-25T22:21:53.441Z,100.00
2023-03-25T22:24:22.182Z,100.00
2023-03-25T22:26:52.027Z,100.00
2023-03-25T22:29:20.874Z,100.00
2023-03-25T22:31:50.750Z,100.00
2023-03-25T22:34:19.543Z,100.00
2023-03-25T22:36:51.009Z,100.00
2023-03-25T22:39:23.086Z,100.00
2023-03-25T22:41:53.377Z,100.00
2023-03-25T22:44:22.357Z,100.00
2023-03-25T22:46:51.956Z,100.00
2023-03-25T22:49:21.756Z,100.00
2023-03-25T22:51:51.131Z,100.00
2023-03-25T22:54:20.137Z,100.00
2023-03-25T22:56:49.061Z,100.00
2023-03-25T22:59:19.198Z,100.00
2023-03-25T23:01:48.008Z,100.00
2023-03-25T23:04:16.759Z,100.00
2023-03-25T23:06:53.946Z,100.00
2023-03-25T23:09:45.158Z,100.00
2023-03-25T23:12:17.115Z,100.00
2023-03-25T23:14:52.496Z,100.00
2023-03-25T23:17:21.609Z,100.00
2023-03-25T23:19:50.716Z,100.00
2023-03-25T23:22:19.845Z,100.00
2023-03-25T23:24:48.558Z,100.00
2023-03-25T23:27:17.260Z,100.00
2023-03-25T23:29:47.081Z,100.00
2023-03-25T23:32:16.553Z,100.00
2023-03-25T23:34:45.294Z,100.00
2023-03-25T23:37:14.082Z,100.00
2023-03-25T23:39:46.290Z,100.00
2023-03-25T23:42:15.094Z,100.00
2023-03-25T23:44:44.437Z,100.00
2023-03-25T23:47:14.593Z,100.00
2023-03-25T23:49:44.292Z,100.00
2023-03-25T23:52:13.695Z,100.00
2023-03-25T23:54:43.027Z,100.00
2023-03-25T23:57:11.766Z,100.00
2023-03-25T23:59:40.612Z,100.00
